Time;durP1;ratioP1;P1;durP2;ratioP2;P2;SDS_P1;SDS_P2;PMS_P1;PMS_P2;Temp;Humidity;BMP_temperature;BMP_pressure;BME280_temperature;BME280_humidity;BME280_pressure;Samples;Min_cycle;Max_cycle;Signal;HPM_P1;HPM_P2
2022/11/20 00:04:37;;;;;;;8.48;5.25;;;;;;;;;;10264579;28;20273;-82
2022/11/20 00:09:40;;;;;;;8.48;5.20;;;;;;;;;;10254007;28;20073;-82
2022/11/20 00:14:44;;;;;;;9.20;4.85;;;;;;;;;;10242796;28;20061;-84
2022/11/20 00:19:49;;;;;;;7.05;4.68;;;;;;;;;;10246124;29;20074;-81
2022/11/20 00:24:52;;;;;;;7.68;4.38;;;;;;;;;;10246808;28;20039;-83
2022/11/20 00:29:55;;;;;;;7.57;4.93;;;;;;;;;;10230232;28;20066;-83
2022/11/20 00:35:00;;;;;;;6.55;4.25;;;;;;;;;;10286166;28;20456;-82
2022/11/20 00:40:04;;;;;;;7.20;4.78;;;;;;;;;;10295567;28;20057;-84
2022/11/20 00:45:08;;;;;;;7.85;5.60;;;;;;;;;;10220719;28;20108;-83
2022/11/20 00:50:13;;;;;;;6.45;4.43;;;;;;;;;;10261102;28;20427;-83
2022/11/20 00:55:16;;;;;;;9.80;6.47;;;;;;;;;;10252717;28;20039;-82
2022/11/20 01:00:20;;;;;;;9.05;5.78;;;;;;;;;;10222910;29;20520;-83
2022/11/20 01:05:24;;;;;;;7.45;4.75;;;;;;;;;;10182070;29;20052;-81
2022/11/20 01:10:28;;;;;;;7.43;4.95;;;;;;;;;;10205678;29;20051;-82
2022/11/20 01:15:31;;;;;;;7.07;4.30;;;;;;;;;;10183907;29;20048;-81
2022/11/20 01:20:37;;;;;;;7.63;4.63;;;;;;;;;;10173673;29;20054;-81
2022/11/20 01:25:40;;;;;;;6.30;4.15;;;;;;;;;;10174083;29;20043;-80
2022/11/20 01:30:44;;;;;;;7.75;4.95;;;;;;;;;;10170914;29;20052;-80
2022/11/20 01:35:49;;;;;;;8.80;5.63;;;;;;;;;;10180796;29;20435;-81
2022/11/20 01:40:56;;;;;;;7.53;4.68;;;;;;;;;;10200845;29;20059;-81
2022/11/20 01:46:07;;;;;;;8.07;5.03;;;;;;;;;;10169675;29;20040;-81
2022/11/20 01:51:18;;;;;;;6.20;4.05;;;;;;;;;;10180822;29;20287;-81
2022/11/20 01:56:22;;;;;;;7.28;4.78;;;;;;;;;;10240157;28;20054;-80
2022/11/20 02:01:26;;;;;;;10.77;7.07;;;;;;;;;;10203152;28;20049;-81
2022/11/20 02:06:36;;;;;;;11.60;7.22;;;;;;;;;;10213465;28;20097;-82
2022/11/20 02:11:39;;;;;;;7.07;4.85;;;;;;;;;;10222945;28;20059;-81
2022/11/20 02:16:47;;;;;;;9.73;6.53;;;;;;;;;;10223191;28;20056;-80
2022/11/20 02:22:00;;;;;;;7.32;5.10;;;;;;;;;;10205197;28;20053;-80
2022/11/20 02:27:09;;;;;;;7.90;4.90;;;;;;;;;;10200831;28;20158;-80
2022/11/20 02:32:20;;;;;;;10.98;7.50;;;;;;;;;;10226407;28;20047;-80
2022/11/20 02:37:24;;;;;;;8.13;5.13;;;;;;;;;;10211348;28;20051;-81
2022/11/20 02:42:29;;;;;;;6.30;4.28;;;;;;;;;;10226106;29;20065;-80
2022/11/20 02:47:32;;;;;;;7.65;4.85;;;;;;;;;;10209475;28;20047;-80
2022/11/20 02:52:36;;;;;;;7.47;4.22;;;;;;;;;;10211892;28;20053;-80
2022/11/20 02:57:41;;;;;;;6.47;4.15;;;;;;;;;;10215275;28;20305;-80
2022/11/20 03:02:44;;;;;;;5.72;4.05;;;;;;;;;;10250764;28;20047;-79
2022/11/20 03:07:47;;;;;;;5.65;4.05;;;;;;;;;;10253821;28;20121;-80
2022/11/20 03:12:56;;;;;;;6.60;4.32;;;;;;;;;;10246208;28;20146;-79
2022/11/20 03:18:00;;;;;;;7.85;5.18;;;;;;;;;;10241629;28;20138;-79
2022/11/20 03:23:03;;;;;;;7.43;4.60;;;;;;;;;;10235942;28;20054;-80
2022/11/20 03:28:08;;;;;;;8.25;5.13;;;;;;;;;;10234091;28;20055;-80
2022/11/20 03:33:11;;;;;;;6.78;4.57;;;;;;;;;;10230249;28;20055;-80
2022/11/20 03:38:15;;;;;;;7.80;4.70;;;;;;;;;;10233582;28;20050;-80
2022/11/20 03:43:19;;;;;;;6.47;4.72;;;;;;;;;;10242600;28;20055;-80
2022/11/20 03:48:23;;;;;;;5.68;3.80;;;;;;;;;;10233437;28;20047;-79
2022/11/20 03:53:26;;;;;;;6.85;4.57;;;;;;;;;;10232151;28;20061;-80
2022/11/20 03:58:31;;;;;;;6.80;4.22;;;;;;;;;;10253219;28;20129;-79
2022/11/20 04:03:34;;;;;;;7.35;4.30;;;;;;;;;;10234615;28;20058;-79
2022/11/20 04:08:38;;;;;;;6.82;4.57;;;;;;;;;;10228238;28;20688;-79
2022/11/20 04:13:43;;;;;;;7.00;4.57;;;;;;;;;;10228902;28;20048;-79
2022/11/20 04:18:47;;;;;;;6.87;4.40;;;;;;;;;;10229363;28;20046;-79
2022/11/20 04:23:50;;;;;;;5.88;4.00;;;;;;;;;;10185537;29;20075;-80
2022/11/20 04:28:56;;;;;;;6.22;4.53;;;;;;;;;;10207941;28;20038;-82
2022/11/20 04:34:01;;;;;;;10.02;5.32;;;;;;;;;;10244624;28;20267;-81
2022/11/20 04:39:06;;;;;;;9.25;5.00;;;;;;;;;;10257540;28;20046;-82
2022/11/20 04:44:11;;;;;;;8.52;4.95;;;;;;;;;;10241787;28;20746;-81
2022/11/20 04:49:15;;;;;;;7.05;4.43;;;;;;;;;;10198329;28;20051;-81
2022/11/20 04:54:20;;;;;;;5.72;3.92;;;;;;;;;;10234336;28;20127;-79
2022/11/20 04:59:25;;;;;;;9.15;5.00;;;;;;;;;;10214779;28;20058;-80
2022/11/20 05:04:28;;;;;;;7.00;4.60;;;;;;;;;;10246486;28;20055;-80
2022/11/20 05:09:32;;;;;;;8.98;5.82;;;;;;;;;;10233571;28;20046;-79
2022/11/20 05:14:36;;;;;;;8.75;4.78;;;;;;;;;;10250306;28;20049;-80
2022/11/20 05:19:40;;;;;;;8.88;4.60;;;;;;;;;;10230578;28;20142;-80
2022/11/20 05:24:43;;;;;;;8.48;5.13;;;;;;;;;;10234497;28;20039;-80
2022/11/20 05:29:48;;;;;;;8.48;4.95;;;;;;;;;;10212565;29;20558;-79
2022/11/20 05:34:51;;;;;;;8.48;5.25;;;;;;;;;;10228563;28;20327;-80
2022/11/20 05:39:55;;;;;;;8.55;5.05;;;;;;;;;;10249335;28;20053;-80
2022/11/20 05:45:00;;;;;;;8.70;4.65;;;;;;;;;;10231866;28;20051;-79
2022/11/20 05:50:04;;;;;;;6.50;3.50;;;;;;;;;;10206062;28;20047;-79
2022/11/20 05:55:09;;;;;;;8.75;4.43;;;;;;;;;;10231455;28;20533;-79
2022/11/20 06:00:15;;;;;;;8.30;5.15;;;;;;;;;;10202079;29;20070;-79
2022/11/20 06:05:18;;;;;;;7.85;5.00;;;;;;;;;;10205729;28;20070;-79
2022/11/20 06:10:22;;;;;;;7.10;4.00;;;;;;;;;;10208931;28;20051;-79
2022/11/20 06:15:27;;;;;;;7.50;4.85;;;;;;;;;;10243028;28;20151;-79
2022/11/20 06:20:30;;;;;;;7.28;4.32;;;;;;;;;;10217441;28;20057;-79
2022/11/20 06:25:33;;;;;;;7.60;4.53;;;;;;;;;;10235759;28;20044;-81
2022/11/20 06:30:38;;;;;;;8.23;4.75;;;;;;;;;;10259521;28;20047;-82
2022/11/20 06:35:42;;;;;;;8.30;4.53;;;;;;;;;;10240071;28;20338;-81
2022/11/20 06:40:45;;;;;;;7.80;4.50;;;;;;;;;;10249906;28;20576;-78
2022/11/20 06:45:54;;;;;;;9.73;4.90;;;;;;;;;;10234701;28;20050;-79
2022/11/20 06:50:58;;;;;;;8.32;4.85;;;;;;;;;;10181670;29;20059;-79
2022/11/20 06:56:01;;;;;;;8.18;5.07;;;;;;;;;;10196248;28;20050;-80
2022/11/20 07:01:08;;;;;;;8.85;4.78;;;;;;;;;;10210803;28;20047;-79
2022/11/20 07:06:12;;;;;;;6.22;3.90;;;;;;;;;;10218227;28;20056;-79
2022/11/20 07:11:15;;;;;;;6.28;4.22;;;;;;;;;;10227613;28;20043;-80
2022/11/20 07:16:20;;;;;;;6.68;4.05;;;;;;;;;;10218203;28;20052;-79
2022/11/20 07:21:23;;;;;;;8.55;4.65;;;;;;;;;;10239778;28;20070;-80
2022/11/20 07:26:27;;;;;;;7.95;4.25;;;;;;;;;;10238870;28;20081;-79
2022/11/20 07:31:31;;;;;;;6.97;4.43;;;;;;;;;;10219285;28;20527;-79
2022/11/20 07:36:35;;;;;;;7.65;4.53;;;;;;;;;;10226929;28;20057;-79
2022/11/20 07:41:38;;;;;;;7.05;4.65;;;;;;;;;;10229044;28;20077;-79
2022/11/20 07:46:43;;;;;;;7.63;4.45;;;;;;;;;;10241434;28;20423;-79
2022/11/20 07:51:46;;;;;;;16.65;8.52;;;;;;;;;;10220175;28;20081;-79
2022/11/20 07:56:52;;;;;;;11.65;6.55;;;;;;;;;;10237493;28;20055;-79
2022/11/20 08:01:57;;;;;;;9.77;5.35;;;;;;;;;;10266460;28;20059;-79
2022/11/20 08:07:00;;;;;;;10.70;5.47;;;;;;;;;;10251747;28;20081;-80
2022/11/20 08:17:25;;;;;;;9.43;5.32;;;;;;;;;;10228292;28;20442;-80
2022/11/20 08:22:29;;;;;;;11.63;5.65;;;;;;;;;;10219789;28;20067;-78
2022/11/20 08:27:33;;;;;;;9.00;5.18;;;;;;;;;;10216575;28;20332;-85
2022/11/20 08:32:42;;;;;;;7.45;4.63;;;;;;;;;;10237795;28;20050;-87
2022/11/20 08:37:48;;;;;;;12.20;6.35;;;;;;;;;;10255843;28;20051;-88
2022/11/20 08:42:52;;;;;;;12.82;6.47;;;;;;;;;;10216847;28;20067;-83
2022/11/20 08:48:01;;;;;;;10.18;5.70;;;;;;;;;;10239814;28;20274;-84
2022/11/20 08:53:06;;;;;;;8.73;5.25;;;;;;;;;;10217095;28;20070;-86
2022/11/20 08:58:09;;;;;;;10.55;5.35;;;;;;;;;;10251569;28;20034;-86
2022/11/20 09:03:14;;;;;;;8.98;5.07;;;;;;;;;;10250823;28;20057;-83
2022/11/20 09:08:17;;;;;;;9.55;5.05;;;;;;;;;;10234964;28;20050;-82
2022/11/20 09:13:21;;;;;;;10.30;5.30;;;;;;;;;;10234974;28;20061;-83
2022/11/20 09:18:26;;;;;;;11.18;5.95;;;;;;;;;;10238325;28;20049;-85
2022/11/20 09:23:34;;;;;;;13.07;6.47;;;;;;;;;;10252742;28;20098;-84
2022/11/20 09:28:37;;;;;;;11.38;5.50;;;;;;;;;;10241079;28;20126;-84
2022/11/20 09:33:42;;;;;;;10.98;5.80;;;;;;;;;;10254589;28;20082;-84
2022/11/20 09:38:46;;;;;;;11.65;6.32;;;;;;;;;;10228462;28;20043;-84
2022/11/20 09:43:58;;;;;;;9.90;5.65;;;;;;;;;;10228224;28;20538;-85
2022/11/20 09:49:20;;;;;;;11.10;5.50;;;;;;;;;;10218446;28;20622;-84
2022/11/20 09:54:31;;;;;;;9.32;5.00;;;;;;;;;;10212712;29;20082;-85
2022/11/20 09:59:38;;;;;;;8.73;4.95;;;;;;;;;;10182093;29;20050;-85
2022/11/20 10:04:47;;;;;;;9.32;5.07;;;;;;;;;;10187662;29;20051;-84
2022/11/20 10:09:54;;;;;;;7.68;4.68;;;;;;;;;;10186247;29;20405;-87
2022/11/20 10:15:06;;;;;;;7.20;4.25;;;;;;;;;;10180253;29;20571;-84
2022/11/20 10:20:18;;;;;;;6.07;3.67;;;;;;;;;;10181313;29;20043;-84
2022/11/20 10:25:24;;;;;;;5.00;3.00;;;;;;;;;;10180352;29;20052;-84
2022/11/20 10:30:30;;;;;;;4.05;2.40;;;;;;;;;;10182654;29;21431;-84
2022/11/20 10:35:39;;;;;;;4.77;2.87;;;;;;;;;;10183344;29;20048;-84
2022/11/20 10:40:46;;;;;;;5.97;3.17;;;;;;;;;;10181991;29;20043;-84
2022/11/20 10:45:56;;;;;;;4.65;3.00;;;;;;;;;;10193665;29;20073;-84
2022/11/20 10:51:18;;;;;;;6.43;3.63;;;;;;;;;;10173038;29;20046;-85
2022/11/20 10:56:27;;;;;;;5.60;3.22;;;;;;;;;;10233215;28;20078;-86
2022/11/20 11:01:30;;;;;;;6.60;4.00;;;;;;;;;;10246850;28;20503;-87
2022/11/20 11:06:39;;;;;;;5.78;3.50;;;;;;;;;;10242727;28;20144;-83
2022/11/20 11:11:42;;;;;;;7.55;3.72;;;;;;;;;;10223787;28;20057;-83
2022/11/20 11:16:52;;;;;;;5.53;3.40;;;;;;;;;;10231452;28;20043;-84
2022/11/20 11:21:57;;;;;;;4.60;2.72;;;;;;;;;;10206939;28;20047;-82
2022/11/20 11:27:04;;;;;;;5.30;2.88;;;;;;;;;;10225413;28;20060;-81
2022/11/20 11:32:09;;;;;;;4.20;3.03;;;;;;;;;;10236799;28;20530;-82
2022/11/20 11:37:18;;;;;;;5.03;2.97;;;;;;;;;;10235659;28;20047;-82
2022/11/20 11:42:22;;;;;;;3.47;2.63;;;;;;;;;;10228983;28;20142;-82
2022/11/20 11:47:27;;;;;;;3.55;2.67;;;;;;;;;;10268057;28;20517;-82
2022/11/20 11:52:35;;;;;;;4.90;3.05;;;;;;;;;;10227338;28;20054;-81
2022/11/20 11:57:47;;;;;;;3.65;2.20;;;;;;;;;;10198298;29;20044;-82
2022/11/20 12:03:01;;;;;;;4.13;2.50;;;;;;;;;;10190808;29;20040;-82
2022/11/20 12:08:12;;;;;;;4.40;3.00;;;;;;;;;;10205391;29;20416;-82
2022/11/20 12:13:26;;;;;;;4.65;3.30;;;;;;;;;;10202525;29;20048;-81
2022/11/20 12:18:30;;;;;;;3.70;2.65;;;;;;;;;;10193631;29;20448;-83
2022/11/20 12:23:45;;;;;;;4.82;2.53;;;;;;;;;;10179458;29;20427;-82
2022/11/20 12:29:00;;;;;;;3.35;2.40;;;;;;;;;;10168742;29;20054;-82
2022/11/20 12:34:21;;;;;;;2.95;2.33;;;;;;;;;;10193940;29;20048;-82
2022/11/20 12:39:35;;;;;;;5.35;3.03;;;;;;;;;;10197358;29;20051;-82
2022/11/20 12:45:10;;;;;;;3.03;2.40;;;;;;;;;;10199744;29;20051;-82
2022/11/20 12:50:23;;;;;;;2.27;1.90;;;;;;;;;;10192204;29;20678;-82
2022/11/20 12:55:43;;;;;;;4.20;2.75;;;;;;;;;;10210940;28;20293;-82
2022/11/20 13:00:55;;;;;;;4.55;3.08;;;;;;;;;;10229402;28;20073;-82
2022/11/20 13:06:06;;;;;;;6.05;2.92;;;;;;;;;;10245339;28;20110;-82
2022/11/20 13:11:19;;;;;;;7.00;3.65;;;;;;;;;;10213317;28;20039;-82
2022/11/20 13:16:32;;;;;;;6.20;3.20;;;;;;;;;;10209181;28;20419;-82
2022/11/20 13:21:39;;;;;;;4.97;2.72;;;;;;;;;;10212842;28;20055;-82
2022/11/20 13:26:44;;;;;;;6.25;3.47;;;;;;;;;;10218138;28;20521;-82
2022/11/20 13:31:49;;;;;;;8.55;4.32;;;;;;;;;;10218589;28;20086;-82
2022/11/20 13:36:54;;;;;;;5.88;3.17;;;;;;;;;;10210979;28;20039;-83
2022/11/20 13:42:00;;;;;;;5.25;2.88;;;;;;;;;;10212416;28;20051;-82
2022/11/20 13:47:04;;;;;;;4.28;2.35;;;;;;;;;;10240818;28;20614;-82
2022/11/20 13:52:32;;;;;;;7.35;3.60;;;;;;;;;;10217220;28;20087;-82
2022/11/20 13:57:55;;;;;;;2.58;2.03;;;;;;;;;;10175465;29;20047;-82
2022/11/20 14:03:09;;;;;;;1.45;1.27;;;;;;;;;;10171214;29;20040;-83
2022/11/20 14:08:20;;;;;;;4.93;2.38;;;;;;;;;;10179992;29;20051;-83
2022/11/20 14:13:25;;;;;;;3.08;1.80;;;;;;;;;;10200494;29;20063;-82
2022/11/20 14:18:29;;;;;;;1.70;1.08;;;;;;;;;;10210298;29;20048;-83
2022/11/20 14:23:32;;;;;;;2.67;1.65;;;;;;;;;;10204139;29;20053;-82
2022/11/20 14:28:38;;;;;;;3.50;1.48;;;;;;;;;;10214435;29;20611;-84
2022/11/20 14:33:41;;;;;;;2.93;1.40;;;;;;;;;;10207391;29;20051;-84
2022/11/20 14:38:45;;;;;;;2.42;1.00;;;;;;;;;;10198534;29;20047;-82
2022/11/20 14:43:53;;;;;;;1.92;1.13;;;;;;;;;;10215102;29;20388;-84
2022/11/20 14:49:01;;;;;;;0.90;0.77;;;;;;;;;;10214025;29;20070;-83
2022/11/20 14:54:11;;;;;;;1.33;0.80;;;;;;;;;;10209012;28;20047;-84
2022/11/20 14:59:24;;;;;;;2.30;1.02;;;;;;;;;;10260860;28;20054;-84
2022/11/20 15:04:28;;;;;;;1.75;0.73;;;;;;;;;;10258154;28;20045;-84
2022/11/20 15:09:31;;;;;;;2.58;1.70;;;;;;;;;;10252089;28;20040;-84
2022/11/20 15:14:38;;;;;;;3.45;1.08;;;;;;;;;;10232999;28;20051;-84
2022/11/20 15:19:41;;;;;;;2.20;0.80;;;;;;;;;;10275370;28;20059;-84
2022/11/20 15:24:44;;;;;;;0.90;0.77;;;;;;;;;;10266754;28;20050;-84
2022/11/20 15:29:49;;;;;;;2.20;1.10;;;;;;;;;;10238700;28;20041;-82
2022/11/20 15:34:53;;;;;;;0.80;0.73;;;;;;;;;;10220475;28;20051;-82
2022/11/20 15:39:56;;;;;;;1.80;1.02;;;;;;;;;;10240674;28;20051;-82
2022/11/20 15:45:01;;;;;;;2.88;1.10;;;;;;;;;;10213089;28;20044;-81
2022/11/20 15:50:09;;;;;;;2.00;1.15;;;;;;;;;;10227786;28;20047;-82
2022/11/20 15:55:12;;;;;;;3.53;1.30;;;;;;;;;;10243115;28;20067;-83
2022/11/20 16:00:18;;;;;;;5.18;2.10;;;;;;;;;;10236544;28;20050;-82
2022/11/20 16:05:28;;;;;;;2.08;1.33;;;;;;;;;;10221396;28;20735;-83
2022/11/20 16:10:31;;;;;;;1.80;1.17;;;;;;;;;;10220992;28;20039;-81
2022/11/20 16:15:48;;;;;;;1.05;0.63;;;;;;;;;;10216478;28;20511;-82
2022/11/20 16:20:53;;;;;;;0.65;0.50;;;;;;;;;;10226438;28;20219;-81
2022/11/20 16:25:56;;;;;;;0.70;0.50;;;;;;;;;;10250657;28;20054;-82
2022/11/20 16:31:11;;;;;;;0.63;0.60;;;;;;;;;;10220279;28;20423;-82
2022/11/20 16:36:16;;;;;;;2.05;0.93;;;;;;;;;;10235293;28;20051;-83
2022/11/20 16:41:19;;;;;;;1.60;1.30;;;;;;;;;;10238515;28;20039;-83
2022/11/20 16:46:25;;;;;;;2.33;1.30;;;;;;;;;;10235745;28;20094;-85
2022/11/20 16:51:30;;;;;;;0.82;0.73;;;;;;;;;;10252736;28;20066;-81
2022/11/20 16:56:34;;;;;;;1.85;1.00;;;;;;;;;;10232790;28;20515;-81
2022/11/20 17:01:41;;;;;;;1.85;1.20;;;;;;;;;;10254406;28;20476;-81
2022/11/20 17:06:45;;;;;;;1.70;0.85;;;;;;;;;;10242106;28;20585;-82
2022/11/20 17:11:49;;;;;;;1.13;0.80;;;;;;;;;;10211573;28;20051;-82
2022/11/20 17:16:54;;;;;;;0.93;0.60;;;;;;;;;;10204214;28;20752;-81
2022/11/20 17:21:57;;;;;;;0.60;0.60;;;;;;;;;;10217784;28;20050;-81
2022/11/20 17:27:01;;;;;;;1.27;0.80;;;;;;;;;;10204262;28;20046;-81
2022/11/20 17:32:06;;;;;;;1.13;0.60;;;;;;;;;;10212149;28;20043;-82
2022/11/20 17:37:09;;;;;;;1.67;0.75;;;;;;;;;;10210709;28;20047;-82
2022/11/20 17:42:28;;;;;;;2.13;1.00;;;;;;;;;;10214693;28;20114;-81
2022/11/20 17:47:36;;;;;;;2.05;1.00;;;;;;;;;;10208667;28;20078;-82
2022/11/20 17:52:39;;;;;;;1.02;0.80;;;;;;;;;;10211749;28;20049;-81
2022/11/20 17:58:01;;;;;;;1.02;0.70;;;;;;;;;;10175262;29;20104;-82
2022/11/20 18:03:06;;;;;;;1.27;0.90;;;;;;;;;;10169683;29;20547;-81
2022/11/20 18:08:09;;;;;;;1.13;0.70;;;;;;;;;;10189771;29;20416;-81
2022/11/20 18:13:13;;;;;;;1.23;1.00;;;;;;;;;;10178199;29;20043;-82
2022/11/20 18:18:21;;;;;;;0.90;0.70;;;;;;;;;;10193633;29;20043;-82
2022/11/20 18:23:25;;;;;;;1.40;1.10;;;;;;;;;;10189370;29;20102;-82
2022/11/20 18:28:28;;;;;;;1.23;1.02;;;;;;;;;;10189438;29;20241;-82
2022/11/20 18:33:33;;;;;;;0.73;0.70;;;;;;;;;;10181009;29;20253;-82
2022/11/20 18:38:39;;;;;;;0.70;0.57;;;;;;;;;;10187966;29;20059;-81
2022/11/20 18:49:05;;;;;;;5.53;2.10;;;;;;;;;;10182925;29;20274;-81
2022/11/20 18:54:08;;;;;;;1.23;0.88;;;;;;;;;;10188751;28;20138;-81
2022/11/20 18:59:12;;;;;;;0.88;0.80;;;;;;;;;;10215526;28;20074;-81
2022/11/20 19:04:18;;;;;;;0.68;0.55;;;;;;;;;;10225057;28;20523;-82
2022/11/20 19:09:22;;;;;;;0.63;0.50;;;;;;;;;;10240658;28;20519;-82
2022/11/20 19:14:26;;;;;;;0.40;0.40;;;;;;;;;;10228710;28;20055;-82
2022/11/20 19:19:30;;;;;;;1.27;0.43;;;;;;;;;;10253305;28;20591;-81
2022/11/20 19:24:34;;;;;;;4.32;2.72;;;;;;;;;;10236857;28;20053;-82
2022/11/20 19:29:37;;;;;;;2.58;1.70;;;;;;;;;;10244901;28;20053;-82
2022/11/20 19:34:42;;;;;;;1.00;0.85;;;;;;;;;;10216863;28;20252;-81
2022/11/20 19:39:46;;;;;;;1.05;0.68;;;;;;;;;;10244166;28;20408;-81
2022/11/20 19:44:49;;;;;;;1.75;1.00;;;;;;;;;;10215267;28;20062;-82
2022/11/20 19:49:54;;;;;;;2.53;1.33;;;;;;;;;;10233752;28;20458;-82
2022/11/20 19:54:57;;;;;;;3.72;1.88;;;;;;;;;;10233665;28;20051;-82
2022/11/20 20:00:01;;;;;;;1.75;1.27;;;;;;;;;;10207942;28;20487;-81
2022/11/20 20:05:09;;;;;;;1.33;0.90;;;;;;;;;;10242641;28;20142;-80
2022/11/20 20:10:12;;;;;;;1.80;1.30;;;;;;;;;;10225742;28;20050;-81
2022/11/20 20:15:21;;;;;;;1.00;0.80;;;;;;;;;;10226775;28;20047;-82
2022/11/20 20:20:26;;;;;;;1.42;0.70;;;;;;;;;;10227906;28;20053;-79
2022/11/20 20:25:29;;;;;;;1.35;0.95;;;;;;;;;;10232046;28;20054;-79
2022/11/20 20:30:33;;;;;;;1.42;1.13;;;;;;;;;;10224221;28;20054;-79
2022/11/20 20:35:41;;;;;;;2.30;1.02;;;;;;;;;;10240426;28;20055;-81
2022/11/20 20:40:48;;;;;;;1.98;1.17;;;;;;;;;;10269755;28;20166;-79
2022/11/20 20:45:52;;;;;;;2.30;0.90;;;;;;;;;;10221988;28;20653;-79
2022/11/20 20:50:59;;;;;;;4.00;1.60;;;;;;;;;;10252459;28;20138;-80
2022/11/20 20:56:03;;;;;;;4.93;2.13;;;;;;;;;;10247049;28;20130;-80
2022/11/20 21:01:08;;;;;;;5.88;1.90;;;;;;;;;;10251083;28;20130;-80
2022/11/20 21:06:13;;;;;;;3.85;1.45;;;;;;;;;;10244572;28;20055;-79
2022/11/20 21:11:19;;;;;;;1.90;0.90;;;;;;;;;;10239639;28;20048;-80
2022/11/20 21:16:23;;;;;;;5.27;1.23;;;;;;;;;;10236016;28;20718;-80
2022/11/20 21:26:51;;;;;;;6.30;2.20;;;;;;;;;;10230903;28;20050;-82
2022/11/20 21:31:54;;;;;;;3.78;1.70;;;;;;;;;;10211420;28;20051;-80
2022/11/20 21:36:59;;;;;;;12.20;3.08;;;;;;;;;;10226941;28;20173;-79
2022/11/20 21:42:03;;;;;;;7.40;2.08;;;;;;;;;;10248125;28;20044;-80
2022/11/20 21:47:06;;;;;;;4.03;1.55;;;;;;;;;;10226851;28;20062;-80
2022/11/20 21:52:11;;;;;;;3.65;1.80;;;;;;;;;;10246183;28;20050;-81
2022/11/20 21:57:15;;;;;;;4.33;1.63;;;;;;;;;;10243078;28;20443;-79
2022/11/20 22:02:18;;;;;;;5.88;2.78;;;;;;;;;;10248740;28;20039;-80
2022/11/20 22:07:23;;;;;;;4.57;1.63;;;;;;;;;;10218670;28;20051;-81
2022/11/20 22:12:27;;;;;;;1.73;1.00;;;;;;;;;;10226379;28;20066;-82
2022/11/20 22:22:53;;;;;;;2.13;0.75;;;;;;;;;;10226557;28;20047;-80
2022/11/20 22:27:56;;;;;;;3.72;1.30;;;;;;;;;;10250034;28;20058;-80
2022/11/20 22:33:00;;;;;;;3.67;1.08;;;;;;;;;;10205941;28;20063;-79
2022/11/20 22:38:06;;;;;;;3.50;1.00;;;;;;;;;;10231962;28;20059;-79
2022/11/20 22:43:09;;;;;;;4.20;1.05;;;;;;;;;;10241276;28;20047;-79
2022/11/20 22:48:13;;;;;;;3.10;0.93;;;;;;;;;;10234440;28;20338;-79
2022/11/20 22:53:18;;;;;;;2.50;0.90;;;;;;;;;;10228417;28;20043;-79
2022/11/20 22:58:21;;;;;;;4.22;1.40;;;;;;;;;;10174138;29;20048;-79
2022/11/20 23:03:24;;;;;;;4.38;1.40;;;;;;;;;;10190845;29;20051;-81
2022/11/20 23:08:30;;;;;;;2.42;1.10;;;;;;;;;;10181731;29;20662;-79
2022/11/20 23:13:34;;;;;;;3.40;0.85;;;;;;;;;;10178835;29;20057;-79
2022/11/20 23:18:38;;;;;;;4.72;1.23;;;;;;;;;;10196440;29;20061;-79
2022/11/20 23:23:43;;;;;;;3.35;1.10;;;;;;;;;;10198506;29;20052;-79
2022/11/20 23:28:47;;;;;;;9.55;1.42;;;;;;;;;;10197147;29;20055;-79
2022/11/20 23:33:50;;;;;;;3.92;0.90;;;;;;;;;;10166510;29;20782;-80
2022/11/20 23:38:55;;;;;;;4.55;1.10;;;;;;;;;;10175782;29;20040;-80
2022/11/20 23:43:58;;;;;;;1.75;0.60;;;;;;;;;;10210390;28;20048;-80
2022/11/20 23:49:02;;;;;;;6.47;1.35;;;;;;;;;;10189914;29;20122;-79
2022/11/20 23:54:07;;;;;;;2.63;0.90;;;;;;;;;;10206153;28;20530;-81
2022/11/20 23:59:10;;;;;;;3.85;0.80;;;;;;;;;;10250319;28;20541;-79
